KGVL/GVL METAR and TAF weather

Enter ICAO airport designator
Station Type Date Time Source
KGVL METAR 2021/05/15 22:53 UTC NOAA

KGVL 152253Z AUTO 21003KT 10SM CLR 23/06 A3021 RMK AO2 SLP220 T02280061


Station Type Date Time Source
KGVL Decoded METAR 2021/05/15 22:53 UTC NOAA

GILMER MEMORIAL AIRPORT, GA, United States (KGVL) 34-16N 83-50W 386M
May 15, 2021 - 06:53 PM EDT / 2021.05.15 2253 UTC
Wind: from the SSW (210 degrees) at 3 MPH (3 KT):0
Visibility: 10 mile(s):0
Sky conditions: clear
Temperature: 73.0 F (22.8 C)
Dew Point: 43.0 F (6.1 C)
Relative Humidity: 33%
Pressure (altimeter): 30.21 in. Hg (1023 hPa)
ob: KGVL 152253Z AUTO 21003KT 10SM CLR 23/06 A3021 RMK AO2 SLP220 T02280061
cycle: 23

Station Type Date Time Source
KGVL TAF UTC NOAA

Error!

Example: see airport list